sensor_id;sensor_type;location;lat;lon;timestamp;pressure;altitude;pressure_sealevel;temperature;humidity
77879;BME280;67071;51.144;17.050;2023-04-06T00:01:59;100910.53;;;-2.13;65.33
77879;BME280;67071;51.144;17.050;2023-04-06T00:04:14;100903.35;;;-2.15;65.36
77879;BME280;67071;51.144;17.050;2023-04-06T00:06:30;100900.77;;;-2.18;65.38
77879;BME280;67071;51.144;17.050;2023-04-06T00:08:47;100907.94;;;-2.21;65.37
77879;BME280;67071;51.144;17.050;2023-04-06T00:11:02;100902.34;;;-2.24;65.39
77879;BME280;67071;51.144;17.050;2023-04-06T00:13:17;100903.98;;;-2.24;65.44
77879;BME280;67071;51.144;17.050;2023-04-06T00:15:33;100903.55;;;-2.25;65.46
77879;BME280;67071;51.144;17.050;2023-04-06T00:17:49;100902.48;;;-2.27;65.53
77879;BME280;67071;51.144;17.050;2023-04-06T00:20:10;100910.32;;;-2.19;65.62
77879;BME280;67071;51.144;17.050;2023-04-06T00:22:26;100909.23;;;-2.17;65.61
77879;BME280;67071;51.144;17.050;2023-04-06T00:24:40;100898.54;;;-2.16;65.63
77879;BME280;67071;51.144;17.050;2023-04-06T00:26:56;100899.73;;;-2.11;65.63
77879;BME280;67071;51.144;17.050;2023-04-06T00:29:10;100903.14;;;-2.09;65.60
77879;BME280;67071;51.144;17.050;2023-04-06T00:31:28;100907.38;;;-2.11;65.58
77879;BME280;67071;51.144;17.050;2023-04-06T00:33:43;100902.67;;;-2.13;65.63
77879;BME280;67071;51.144;17.050;2023-04-06T00:35:58;100897.18;;;-2.13;65.75
77879;BME280;67071;51.144;17.050;2023-04-06T00:38:14;100905.80;;;-2.09;65.79
77879;BME280;67071;51.144;17.050;2023-04-06T00:40:31;100902.30;;;-2.10;65.80
77879;BME280;67071;51.144;17.050;2023-04-06T00:42:47;100898.32;;;-2.10;65.85
77879;BME280;67071;51.144;17.050;2023-04-06T00:45:02;100900.52;;;-2.14;65.80
77879;BME280;67071;51.144;17.050;2023-04-06T00:47:22;100899.78;;;-2.20;65.80
77879;BME280;67071;51.144;17.050;2023-04-06T00:49:37;100894.26;;;-2.24;65.83
77879;BME280;67071;51.144;17.050;2023-04-06T00:51:52;100900.20;;;-2.29;65.86
77879;BME280;67071;51.144;17.050;2023-04-06T00:54:07;100897.23;;;-2.34;65.90
77879;BME280;67071;51.144;17.050;2023-04-06T00:56:26;100891.45;;;-2.38;65.95
77879;BME280;67071;51.144;17.050;2023-04-06T00:58:44;100897.59;;;-2.38;66.03
77879;BME280;67071;51.144;17.050;2023-04-06T01:01:00;100895.16;;;-2.37;66.05
77879;BME280;67071;51.144;17.050;2023-04-06T01:03:16;100899.38;;;-2.34;66.06
77879;BME280;67071;51.144;17.050;2023-04-06T01:05:35;100896.15;;;-2.37;66.03
77879;BME280;67071;51.144;17.050;2023-04-06T01:07:55;100896.93;;;-2.40;66.06
77879;BME280;67071;51.144;17.050;2023-04-06T01:10:26;100896.59;;;-2.40;66.05
77879;BME280;67071;51.144;17.050;2023-04-06T01:12:42;100895.21;;;-2.44;66.05
77879;BME280;67071;51.144;17.050;2023-04-06T01:14:57;100898.54;;;-2.46;66.11
77879;BME280;67071;51.144;17.050;2023-04-06T01:17:15;100895.72;;;-2.44;66.20
77879;BME280;67071;51.144;17.050;2023-04-06T01:19:30;100891.64;;;-2.43;66.27
77879;BME280;67071;51.144;17.050;2023-04-06T01:21:45;100895.79;;;-2.42;66.35
77879;BME280;67071;51.144;17.050;2023-04-06T01:24:01;100889.83;;;-2.33;66.45
77879;BME280;67071;51.144;17.050;2023-04-06T01:26:16;100895.86;;;-2.27;66.48
77879;BME280;67071;51.144;17.050;2023-04-06T01:28:33;100896.12;;;-2.25;66.47
77879;BME280;67071;51.144;17.050;2023-04-06T01:30:48;100893.30;;;-2.27;66.45
77879;BME280;67071;51.144;17.050;2023-04-06T01:33:09;100894.07;;;-2.34;66.42
77879;BME280;67071;51.144;17.050;2023-04-06T01:35:28;100888.21;;;-2.41;66.45
77879;BME280;67071;51.144;17.050;2023-04-06T01:37:42;100895.24;;;-2.48;66.48
77879;BME280;67071;51.144;17.050;2023-04-06T01:39:57;100893.17;;;-2.54;66.57
77879;BME280;67071;51.144;17.050;2023-04-06T01:42:12;100881.76;;;-2.55;66.65
77879;BME280;67071;51.144;17.050;2023-04-06T01:44:30;100890.88;;;-2.55;66.72
77879;BME280;67071;51.144;17.050;2023-04-06T01:46:45;100887.63;;;-2.56;66.76
77879;BME280;67071;51.144;17.050;2023-04-06T01:49:00;100891.12;;;-2.44;66.76
77879;BME280;67071;51.144;17.050;2023-04-06T01:51:15;100883.36;;;-2.30;66.73
77879;BME280;67071;51.144;17.050;2023-04-06T01:53:33;100884.95;;;-2.22;66.54
77879;BME280;67071;51.144;17.050;2023-04-06T01:55:48;100884.86;;;-2.20;66.41
77879;BME280;67071;51.144;17.050;2023-04-06T01:58:03;100889.24;;;-2.29;66.32
77879;BME280;67071;51.144;17.050;2023-04-06T02:00:18;100888.49;;;-2.46;66.40
77879;BME280;67071;51.144;17.050;2023-04-06T02:02:34;100883.88;;;-2.53;66.55
77879;BME280;67071;51.144;17.050;2023-04-06T02:04:49;100887.83;;;-2.60;66.63
77879;BME280;67071;51.144;17.050;2023-04-06T02:07:05;100892.66;;;-2.65;66.69
77879;BME280;67071;51.144;17.050;2023-04-06T02:09:20;100892.45;;;-2.69;66.77
77879;BME280;67071;51.144;17.050;2023-04-06T02:11:35;100883.98;;;-2.73;66.84
77879;BME280;67071;51.144;17.050;2023-04-06T02:13:50;100887.13;;;-2.74;66.90
77879;BME280;67071;51.144;17.050;2023-04-06T02:16:06;100887.41;;;-2.76;66.90
77879;BME280;67071;51.144;17.050;2023-04-06T02:18:24;100886.67;;;-2.82;66.93
77879;BME280;67071;51.144;17.050;2023-04-06T02:20:39;100884.27;;;-2.84;66.98
77879;BME280;67071;51.144;17.050;2023-04-06T02:22:58;100884.45;;;-2.86;67.01
77879;BME280;67071;51.144;17.050;2023-04-06T02:25:16;100882.16;;;-2.87;67.03
77879;BME280;67071;51.144;17.050;2023-04-06T02:27:31;100886.23;;;-2.93;67.06
77879;BME280;67071;51.144;17.050;2023-04-06T02:29:57;100882.16;;;-3.01;67.11
77879;BME280;67071;51.144;17.050;2023-04-06T02:32:12;100887.63;;;-2.94;67.26
77879;BME280;67071;51.144;17.050;2023-04-06T02:34:27;100888.59;;;-2.84;67.27
77879;BME280;67071;51.144;17.050;2023-04-06T02:36:41;100886.23;;;-2.78;67.21
77879;BME280;67071;51.144;17.050;2023-04-06T02:38:56;100888.16;;;-2.78;67.12
77879;BME280;67071;51.144;17.050;2023-04-06T02:41:11;100888.94;;;-2.90;67.13
77879;BME280;67071;51.144;17.050;2023-04-06T02:43:26;100891.12;;;-2.97;67.19
77879;BME280;67071;51.144;17.050;2023-04-06T02:45:41;100894.46;;;-3.03;67.23
77879;BME280;67071;51.144;17.050;2023-04-06T02:47:58;100900.10;;;-3.11;67.27
77879;BME280;67071;51.144;17.050;2023-04-06T02:50:14;100899.13;;;-3.10;67.32
77879;BME280;67071;51.144;17.050;2023-04-06T02:52:32;100898.13;;;-3.17;67.35
77879;BME280;67071;51.144;17.050;2023-04-06T02:54:53;100897.82;;;-3.21;67.40
77879;BME280;67071;51.144;17.050;2023-04-06T02:57:07;100901.55;;;-3.22;67.46
77879;BME280;67071;51.144;17.050;2023-04-06T02:59:22;100901.21;;;-3.24;67.52
77879;BME280;67071;51.144;17.050;2023-04-06T03:01:37;100901.30;;;-3.24;67.59
77879;BME280;67071;51.144;17.050;2023-04-06T03:03:52;100900.30;;;-3.25;67.62
77879;BME280;67071;51.144;17.050;2023-04-06T03:06:07;100905.12;;;-3.24;67.63
77879;BME280;67071;51.144;17.050;2023-04-06T03:08:22;100902.54;;;-3.24;67.62
77879;BME280;67071;51.144;17.050;2023-04-06T03:10:40;100906.92;;;-3.21;67.56
77879;BME280;67071;51.144;17.050;2023-04-06T03:12:55;100909.30;;;-3.10;67.39
77879;BME280;67071;51.144;17.050;2023-04-06T03:15:11;100909.78;;;-3.06;67.25
77879;BME280;67071;51.144;17.050;2023-04-06T03:17:27;100903.76;;;-3.12;67.23
77879;BME280;67071;51.144;17.050;2023-04-06T03:19:47;100912.02;;;-3.11;67.19
77879;BME280;67071;51.144;17.050;2023-04-06T03:22:02;100905.66;;;-3.19;67.20
77879;BME280;67071;51.144;17.050;2023-04-06T03:24:20;100914.47;;;-3.27;67.29
77879;BME280;67071;51.144;17.050;2023-04-06T03:26:35;100910.68;;;-3.34;67.38
77879;BME280;67071;51.144;17.050;2023-04-06T03:28:50;100913.16;;;-3.36;67.47
77879;BME280;67071;51.144;17.050;2023-04-06T03:31:07;100917.38;;;-3.39;67.53
77879;BME280;67071;51.144;17.050;2023-04-06T03:33:22;100909.20;;;-3.40;67.57
77879;BME280;67071;51.144;17.050;2023-04-06T03:35:42;100909.93;;;-3.43;67.60
77879;BME280;67071;51.144;17.050;2023-04-06T03:37:57;100918.29;;;-3.43;67.65
77879;BME280;67071;51.144;17.050;2023-04-06T03:40:13;100917.56;;;-3.45;67.68
77879;BME280;67071;51.144;17.050;2023-04-06T03:42:28;100916.31;;;-3.41;67.73
77879;BME280;67071;51.144;17.050;2023-04-06T03:44:43;100917.46;;;-3.42;67.73
77879;BME280;67071;51.144;17.050;2023-04-06T03:46:58;100926.34;;;-3.43;67.78
77879;BME280;67071;51.144;17.050;2023-04-06T03:49:13;100923.03;;;-3.44;67.81
77879;BME280;67071;51.144;17.050;2023-04-06T03:51:31;100924.35;;;-3.41;67.81
77879;BME280;67071;51.144;17.050;2023-04-06T03:53:45;100922.62;;;-3.42;67.83
77879;BME280;67071;51.144;17.050;2023-04-06T03:56:00;100917.38;;;-3.42;67.83
77879;BME280;67071;51.144;17.050;2023-04-06T03:58:21;100919.45;;;-3.42;67.87
77879;BME280;67071;51.144;17.050;2023-04-06T04:00:37;100924.91;;;-3.40;67.89
77879;BME280;67071;51.144;17.050;2023-04-06T04:02:53;100921.84;;;-3.35;67.88
77879;BME280;67071;51.144;17.050;2023-04-06T04:05:10;100924.00;;;-3.34;67.86
77879;BME280;67071;51.144;17.050;2023-04-06T04:07:28;100929.65;;;-3.37;67.87
77879;BME280;67071;51.144;17.050;2023-04-06T04:09:42;100925.27;;;-3.42;67.88
77879;BME280;67071;51.144;17.050;2023-04-06T04:11:57;100933.11;;;-3.46;67.95
77879;BME280;67071;51.144;17.050;2023-04-06T04:14:12;100934.68;;;-3.39;67.91
77879;BME280;67071;51.144;17.050;2023-04-06T04:16:29;100932.20;;;-3.45;67.92
77879;BME280;67071;51.144;17.050;2023-04-06T04:18:48;100932.13;;;-3.48;67.96
77879;BME280;67071;51.144;17.050;2023-04-06T04:21:03;100927.57;;;-3.51;68.02
77879;BME280;67071;51.144;17.050;2023-04-06T04:23:18;100929.31;;;-3.50;68.03
77879;BME280;67071;51.144;17.050;2023-04-06T04:25:34;100931.72;;;-3.52;68.02
77879;BME280;67071;51.144;17.050;2023-04-06T04:27:51;100931.23;;;-3.52;68.04
77879;BME280;67071;51.144;17.050;2023-04-06T04:30:10;100930.99;;;-3.53;68.05
77879;BME280;67071;51.144;17.050;2023-04-06T04:32:28;100932.05;;;-3.52;68.09
77879;BME280;67071;51.144;17.050;2023-04-06T04:34:42;100931.38;;;-3.50;68.09
77879;BME280;67071;51.144;17.050;2023-04-06T04:36:57;100933.04;;;-3.49;68.09
77879;BME280;67071;51.144;17.050;2023-04-06T04:39:12;100932.80;;;-3.47;68.09
77879;BME280;67071;51.144;17.050;2023-04-06T04:41:32;100926.66;;;-3.39;68.14
77879;BME280;67071;51.144;17.050;2023-04-06T04:43:47;100929.65;;;-3.31;68.24
77879;BME280;67071;51.144;17.050;2023-04-06T04:46:04;100938.13;;;-3.21;68.27
77879;BME280;67071;51.144;17.050;2023-04-06T04:48:20;100930.82;;;-3.09;68.27
77879;BME280;67071;51.144;17.050;2023-04-06T04:50:34;100923.02;;;-2.99;68.22
77879;BME280;67071;51.144;17.050;2023-04-06T04:52:49;100929.60;;;-2.86;68.16
77879;BME280;67071;51.144;17.050;2023-04-06T04:55:09;100931.18;;;-2.77;68.08
77879;BME280;67071;51.144;17.050;2023-04-06T04:57:24;100938.85;;;-2.67;67.92
77879;BME280;67071;51.144;17.050;2023-04-06T04:59:39;100940.81;;;-2.62;67.80
77879;BME280;67071;51.144;17.050;2023-04-06T05:01:55;100940.41;;;-2.49;67.74
77879;BME280;67071;51.144;17.050;2023-04-06T05:04:10;100935.88;;;-2.37;67.63
77879;BME280;67071;51.144;17.050;2023-04-06T05:06:29;100936.01;;;-2.26;67.56
77879;BME280;67071;51.144;17.050;2023-04-06T05:08:45;100938.25;;;-2.16;67.54
77879;BME280;67071;51.144;17.050;2023-04-06T05:11:00;100938.23;;;-2.07;67.33
77879;BME280;67071;51.144;17.050;2023-04-06T05:13:15;100938.21;;;-2.04;67.19
77879;BME280;67071;51.144;17.050;2023-04-06T05:15:30;100940.55;;;-1.93;67.15
77879;BME280;67071;51.144;17.050;2023-04-06T05:17:45;100939.22;;;-1.81;67.05
77879;BME280;67071;51.144;17.050;2023-04-06T05:20:01;100938.20;;;-1.76;66.86
77879;BME280;67071;51.144;17.050;2023-04-06T05:22:18;100943.98;;;-1.72;66.74
77879;BME280;67071;51.144;17.050;2023-04-06T05:24:35;100945.24;;;-1.66;66.69
77879;BME280;67071;51.144;17.050;2023-04-06T05:26:51;100943.52;;;-1.58;66.57
77879;BME280;67071;51.144;17.050;2023-04-06T05:29:06;100947.95;;;-1.49;66.47
77879;BME280;67071;51.144;17.050;2023-04-06T05:31:22;100955.94;;;-1.43;66.37
77879;BME280;67071;51.144;17.050;2023-04-06T05:33:37;100950.70;;;-1.33;66.26
77879;BME280;67071;51.144;17.050;2023-04-06T05:35:53;100958.38;;;-1.27;66.21
77879;BME280;67071;51.144;17.050;2023-04-06T05:38:10;100953.33;;;-1.21;66.14
77879;BME280;67071;51.144;17.050;2023-04-06T05:40:33;100950.89;;;-1.15;66.06
77879;BME280;67071;51.144;17.050;2023-04-06T05:42:52;100949.75;;;-1.10;66.01
77879;BME280;67071;51.144;17.050;2023-04-06T05:45:18;100957.80;;;-1.00;66.00
77879;BME280;67071;51.144;17.050;2023-04-06T05:47:33;100952.28;;;-0.91;65.94
77879;BME280;67071;51.144;17.050;2023-04-06T05:49:51;100950.78;;;-0.82;65.87
77879;BME280;67071;51.144;17.050;2023-04-06T05:52:06;100946.46;;;-0.74;65.82
77879;BME280;67071;51.144;17.050;2023-04-06T05:54:21;100948.32;;;-0.68;65.75
77879;BME280;67071;51.144;17.050;2023-04-06T05:56:39;100949.45;;;-0.60;65.66
77879;BME280;67071;51.144;17.050;2023-04-06T05:58:53;100953.45;;;-0.53;65.59
77879;BME280;67071;51.144;17.050;2023-04-06T06:01:09;100954.12;;;-0.47;65.54
77879;BME280;67071;51.144;17.050;2023-04-06T06:03:25;100946.64;;;-0.40;65.65
77879;BME280;67071;51.144;17.050;2023-04-06T06:05:40;100949.62;;;-0.32;65.57
77879;BME280;67071;51.144;17.050;2023-04-06T06:07:57;100944.90;;;-0.23;65.43
77879;BME280;67071;51.144;17.050;2023-04-06T06:10:14;100954.51;;;-0.17;65.46
77879;BME280;67071;51.144;17.050;2023-04-06T06:12:29;100948.73;;;-0.11;65.36
77879;BME280;67071;51.144;17.050;2023-04-06T06:14:45;100950.37;;;-0.03;65.25
77879;BME280;67071;51.144;17.050;2023-04-06T06:17:03;100942.37;;;0.04;65.22
77879;BME280;67071;51.144;17.050;2023-04-06T06:19:21;100948.86;;;0.16;65.10
77879;BME280;67071;51.144;17.050;2023-04-06T06:21:40;100948.73;;;0.25;64.98
77879;BME280;67071;51.144;17.050;2023-04-06T06:23:55;100953.73;;;0.34;64.81
77879;BME280;67071;51.144;17.050;2023-04-06T06:26:11;100952.20;;;0.43;64.73
77879;BME280;67071;51.144;17.050;2023-04-06T06:28:26;100946.25;;;0.55;64.54
77879;BME280;67071;51.144;17.050;2023-04-06T06:30:41;100945.52;;;0.64;64.40
77879;BME280;67071;51.144;17.050;2023-04-06T06:32:56;100945.48;;;0.74;64.28
77879;BME280;67071;51.144;17.050;2023-04-06T06:35:14;100941.12;;;0.81;64.19
77879;BME280;67071;51.144;17.050;2023-04-06T06:37:29;100942.10;;;0.88;64.15
77879;BME280;67071;51.144;17.050;2023-04-06T06:40:06;100946.71;;;1.00;64.05
77879;BME280;67071;51.144;17.050;2023-04-06T06:42:21;100955.91;;;1.08;63.97
77879;BME280;67071;51.144;17.050;2023-04-06T06:44:36;100957.22;;;1.19;63.86
77879;BME280;67071;51.144;17.050;2023-04-06T06:46:51;100954.72;;;1.28;63.77
77879;BME280;67071;51.144;17.050;2023-04-06T06:49:06;100946.22;;;1.35;63.64
77879;BME280;67071;51.144;17.050;2023-04-06T06:51:23;100945.86;;;1.44;63.52
77879;BME280;67071;51.144;17.050;2023-04-06T06:53:39;100946.40;;;1.51;63.46
77879;BME280;67071;51.144;17.050;2023-04-06T06:55:54;100942.63;;;1.59;63.41
77879;BME280;67071;51.144;17.050;2023-04-06T06:58:11;100942.59;;;1.68;63.28
77879;BME280;67071;51.144;17.050;2023-04-06T07:00:26;100941.92;;;1.77;63.22
77879;BME280;67071;51.144;17.050;2023-04-06T07:02:41;100942.95;;;1.84;63.13
77879;BME280;67071;51.144;17.050;2023-04-06T07:04:57;100944.23;;;1.93;63.03
77879;BME280;67071;51.144;17.050;2023-04-06T07:07:14;100943.93;;;1.99;62.98
77879;BME280;67071;51.144;17.050;2023-04-06T07:09:33;100941.60;;;2.11;62.96
77879;BME280;67071;51.144;17.050;2023-04-06T07:11:51;100949.77;;;2.20;62.86
77879;BME280;67071;51.144;17.050;2023-04-06T07:14:05;100942.56;;;2.27;62.81
77879;BME280;67071;51.144;17.050;2023-04-06T07:16:20;100947.11;;;2.32;62.75
77879;BME280;67071;51.144;17.050;2023-04-06T07:18:41;100948.79;;;2.41;62.65
77879;BME280;67071;51.144;17.050;2023-04-06T07:21:02;100947.34;;;2.50;62.62
77879;BME280;67071;51.144;17.050;2023-04-06T07:23:16;100948.59;;;2.61;62.55
77879;BME280;67071;51.144;17.050;2023-04-06T07:25:31;100951.20;;;2.75;62.46
77879;BME280;67071;51.144;17.050;2023-04-06T07:27:55;100954.80;;;2.91;62.35
77879;BME280;67071;51.144;17.050;2023-04-06T07:30:10;100951.80;;;3.03;62.21
77879;BME280;67071;51.144;17.050;2023-04-06T07:32:26;100956.30;;;3.18;62.07
77879;BME280;67071;51.144;17.050;2023-04-06T07:34:41;100953.48;;;3.38;62.04
77879;BME280;67071;51.144;17.050;2023-04-06T07:36:57;100954.16;;;3.59;61.67
77879;BME280;67071;51.144;17.050;2023-04-06T07:39:13;100959.58;;;3.72;61.27
77879;BME280;67071;51.144;17.050;2023-04-06T07:41:28;100962.09;;;3.85;60.99
77879;BME280;67071;51.144;17.050;2023-04-06T07:43:50;100960.05;;;4.03;60.81
77879;BME280;67071;51.144;17.050;2023-04-06T07:46:06;100957.19;;;4.22;60.46
77879;BME280;67071;51.144;17.050;2023-04-06T07:48:21;100959.93;;;4.28;60.22
77879;BME280;67071;51.144;17.050;2023-04-06T07:50:36;100960.25;;;4.28;60.10
77879;BME280;67071;51.144;17.050;2023-04-06T07:52:51;100960.41;;;4.33;59.95
77879;BME280;67071;51.144;17.050;2023-04-06T07:55:09;100962.10;;;4.46;59.81
77879;BME280;67071;51.144;17.050;2023-04-06T07:57:24;100959.89;;;4.50;59.53
77879;BME280;67071;51.144;17.050;2023-04-06T07:59:45;100955.95;;;4.55;59.34
77879;BME280;67071;51.144;17.050;2023-04-06T08:02:00;100961.63;;;4.68;59.18
77879;BME280;67071;51.144;17.050;2023-04-06T08:04:15;100953.48;;;4.81;58.97
77879;BME280;67071;51.144;17.050;2023-04-06T08:06:30;100950.85;;;4.98;58.80
77879;BME280;67071;51.144;17.050;2023-04-06T08:08:50;100952.93;;;5.18;58.52
77879;BME280;67071;51.144;17.050;2023-04-06T08:11:05;100952.96;;;5.28;58.16
77879;BME280;67071;51.144;17.050;2023-04-06T08:13:21;100953.08;;;5.45;57.76
77879;BME280;67071;51.144;17.050;2023-04-06T08:15:35;100955.23;;;5.65;57.52
77879;BME280;67071;51.144;17.050;2023-04-06T08:17:57;100954.36;;;5.78;57.07
77879;BME280;67071;51.144;17.050;2023-04-06T08:20:12;100954.73;;;5.86;56.70
77879;BME280;67071;51.144;17.050;2023-04-06T08:22:28;100956.81;;;5.92;56.55
77879;BME280;67071;51.144;17.050;2023-04-06T08:24:48;100952.46;;;6.01;56.27
77879;BME280;67071;51.144;17.050;2023-04-06T08:27:03;100957.92;;;6.04;56.14
77879;BME280;67071;51.144;17.050;2023-04-06T08:29:19;100961.82;;;6.13;55.89
77879;BME280;67071;51.144;17.050;2023-04-06T08:31:36;100961.42;;;6.18;55.45
77879;BME280;67071;51.144;17.050;2023-04-06T08:33:51;100953.86;;;6.27;55.17
77879;BME280;67071;51.144;17.050;2023-04-06T08:36:14;100955.05;;;6.45;54.93
77879;BME280;67071;51.144;17.050;2023-04-06T08:38:29;100957.42;;;6.59;54.46
77879;BME280;67071;51.144;17.050;2023-04-06T08:40:50;100953.20;;;6.71;53.97
77879;BME280;67071;51.144;17.050;2023-04-06T08:43:14;100949.81;;;6.78;53.70
77879;BME280;67071;51.144;17.050;2023-04-06T08:45:29;100949.99;;;6.85;53.54
77879;BME280;67071;51.144;17.050;2023-04-06T08:47:45;100945.37;;;7.00;53.21
77879;BME280;67071;51.144;17.050;2023-04-06T08:50:04;100944.91;;;7.06;52.91
77879;BME280;67071;51.144;17.050;2023-04-06T08:52:20;100948.66;;;7.03;52.54
77879;BME280;67071;51.144;17.050;2023-04-06T08:54:35;100950.03;;;7.08;52.46
77879;BME280;67071;51.144;17.050;2023-04-06T08:56:56;100951.84;;;7.26;52.11
77879;BME280;67071;51.144;17.050;2023-04-06T08:59:13;100950.88;;;7.50;51.93
77879;BME280;67071;51.144;17.050;2023-04-06T09:01:35;100950.72;;;7.69;51.43
77879;BME280;67071;51.144;17.050;2023-04-06T09:03:57;100947.72;;;7.80;50.88
77879;BME280;67071;51.144;17.050;2023-04-06T09:06:21;100952.52;;;7.91;50.72
77879;BME280;67071;51.144;17.050;2023-04-06T09:08:39;100951.72;;;7.85;50.35
77879;BME280;67071;51.144;17.050;2023-04-06T09:10:55;100949.28;;;7.95;50.13
77879;BME280;67071;51.144;17.050;2023-04-06T09:13:13;100950.11;;;8.04;49.66
77879;BME280;67071;51.144;17.050;2023-04-06T09:15:28;100942.62;;;8.25;49.54
77879;BME280;67071;51.144;17.050;2023-04-06T09:17:59;100940.18;;;8.62;49.18
77879;BME280;67071;51.144;17.050;2023-04-06T09:20:25;100940.51;;;8.90;48.67
77879;BME280;67071;51.144;17.050;2023-04-06T09:22:43;100931.30;;;8.84;47.89
77879;BME280;67071;51.144;17.050;2023-04-06T09:24:58;100930.89;;;9.13;47.93
77879;BME280;67071;51.144;17.050;2023-04-06T09:27:13;100936.56;;;9.67;47.19
77879;BME280;67071;51.144;17.050;2023-04-06T09:29:28;100931.96;;;10.21;45.84
77879;BME280;67071;51.144;17.050;2023-04-06T09:31:46;100926.13;;;10.67;45.06
77879;BME280;67071;51.144;17.050;2023-04-06T09:34:01;100923.56;;;10.70;44.57
77879;BME280;67071;51.144;17.050;2023-04-06T09:36:17;100928.78;;;10.48;44.30
77879;BME280;67071;51.144;17.050;2023-04-06T09:38:36;100926.21;;;10.46;44.46
77879;BME280;67071;51.144;17.050;2023-04-06T09:40:51;100929.68;;;10.85;44.08
77879;BME280;67071;51.144;17.050;2023-04-06T09:43:07;100922.17;;;11.08;43.09
77879;BME280;67071;51.144;17.050;2023-04-06T09:45:23;100914.13;;;11.70;41.89
77879;BME280;67071;51.144;17.050;2023-04-06T09:47:45;100922.85;;;12.17;41.09
77879;BME280;67071;51.144;17.050;2023-04-06T09:50:01;100918.77;;;12.18;41.13
77879;BME280;67071;51.144;17.050;2023-04-06T09:52:18;100919.94;;;11.70;41.12
77879;BME280;67071;51.144;17.050;2023-04-06T09:54:35;100923.51;;;11.63;41.60
77879;BME280;67071;51.144;17.050;2023-04-06T09:59:44;100922.03;;;11.35;41.82
77879;BME280;67071;51.144;17.050;2023-04-06T10:02:05;100916.65;;;11.24;41.86
77879;BME280;67071;51.144;17.050;2023-04-06T10:06:51;100913.60;;;11.75;40.09
77879;BME280;67071;51.144;17.050;2023-04-06T10:09:08;100912.18;;;12.48;39.68
77879;BME280;67071;51.144;17.050;2023-04-06T10:11:23;100912.47;;;12.59;38.45
77879;BME280;67071;51.144;17.050;2023-04-06T10:13:42;100912.05;;;12.62;38.23
77879;BME280;67071;51.144;17.050;2023-04-06T10:24:19;100903.84;;;12.30;38.82
77879;BME280;67071;51.144;17.050;2023-04-06T10:26:34;100897.62;;;11.94;39.19
77879;BME280;67071;51.144;17.050;2023-04-06T10:28:50;100901.73;;;12.51;39.07
77879;BME280;67071;51.144;17.050;2023-04-06T10:33:17;100899.55;;;14.74;36.29
77879;BME280;67071;51.144;17.050;2023-04-06T10:35:38;100891.48;;;15.42;34.98
77879;BME280;67071;51.144;17.050;2023-04-06T10:38:02;100892.98;;;15.68;34.26
77879;BME280;67071;51.144;17.050;2023-04-06T10:40:25;100882.49;;;16.07;33.84
77879;BME280;67071;51.144;17.050;2023-04-06T10:48:54;100883.63;;;14.47;34.68
77879;BME280;67071;51.144;17.050;2023-04-06T10:51:17;100895.62;;;13.70;35.63
77879;BME280;67071;51.144;17.050;2023-04-06T10:53:35;100886.06;;;12.56;36.87
77879;BME280;67071;51.144;17.050;2023-04-06T10:55:52;100891.09;;;12.40;37.86
77879;BME280;67071;51.144;17.050;2023-04-06T11:00:12;100873.38;;;15.72;34.54
77879;BME280;67071;51.144;17.050;2023-04-06T11:08:53;100871.09;;;17.58;31.61
77879;BME280;67071;51.144;17.050;2023-04-06T14:22:43;122535.20;;;-139.81;100.00
77879;BME280;67071;51.144;17.050;2023-04-06T16:01:51;100679.12;;;15.15;25.81
77879;BME280;67071;51.144;17.050;2023-04-06T16:04:08;100679.51;;;16.00;24.94
77879;BME280;67071;51.144;17.050;2023-04-06T16:06:26;100678.25;;;16.78;24.21
77879;BME280;67071;51.144;17.050;2023-04-06T16:08:43;100675.82;;;17.30;23.60
77879;BME280;67071;51.144;17.050;2023-04-06T16:10:58;100677.93;;;17.66;23.24
77879;BME280;67071;51.144;17.050;2023-04-06T16:13:33;100677.02;;;17.72;23.13
77879;BME280;67071;51.144;17.050;2023-04-06T16:15:51;100674.99;;;17.13;23.42
77879;BME280;67071;51.144;17.050;2023-04-06T16:18:05;100673.94;;;17.06;23.69
77879;BME280;67071;51.144;17.050;2023-04-06T16:20:21;100677.70;;;17.20;23.60
77879;BME280;67071;51.144;17.050;2023-04-06T16:22:36;100676.51;;;17.23;23.61
77879;BME280;67071;51.144;17.050;2023-04-06T16:24:51;100684.47;;;16.62;23.87
77879;BME280;67071;51.144;17.050;2023-04-06T16:27:06;100682.14;;;16.43;24.35
77879;BME280;67071;51.144;17.050;2023-04-06T16:29:22;100673.91;;;16.01;24.64
77879;BME280;67071;51.144;17.050;2023-04-06T16:31:37;100680.73;;;15.57;25.20
77879;BME280;67071;51.144;17.050;2023-04-06T16:33:57;100679.98;;;15.48;25.59
77879;BME280;67071;51.144;17.050;2023-04-06T16:36:20;100674.52;;;15.75;25.47
77879;BME280;67071;51.144;17.050;2023-04-06T16:38:46;100677.36;;;15.80;25.38
77879;BME280;67071;51.144;17.050;2023-04-06T16:41:01;100675.91;;;15.32;25.64
77879;BME280;67071;51.144;17.050;2023-04-06T16:43:19;100679.80;;;15.09;26.08
77879;BME280;67071;51.144;17.050;2023-04-06T16:45:33;100675.80;;;15.32;26.07
77879;BME280;67071;51.144;17.050;2023-04-06T16:47:56;100677.44;;;15.18;26.18
77879;BME280;67071;51.144;17.050;2023-04-06T16:50:11;100680.37;;;14.92;26.63
77879;BME280;67071;51.144;17.050;2023-04-06T16:52:26;100682.94;;;14.63;26.91
77879;BME280;67071;51.144;17.050;2023-04-06T16:54:40;100679.60;;;13.88;27.79
77879;BME280;67071;51.144;17.050;2023-04-06T16:57:06;100674.59;;;13.64;28.23
77879;BME280;67071;51.144;17.050;2023-04-06T16:59:20;100682.37;;;13.18;28.77
77879;BME280;67071;51.144;17.050;2023-04-06T17:01:35;100683.79;;;12.47;29.67
77879;BME280;67071;51.144;17.050;2023-04-06T17:03:51;100681.54;;;12.12;30.35
77879;BME280;67071;51.144;17.050;2023-04-06T17:06:06;100679.63;;;11.97;30.60
77879;BME280;67071;51.144;17.050;2023-04-06T17:08:22;100685.48;;;11.77;30.92